Canso, Canada
Current Conditions -  °F | °C
As of 8:00 PM on Sunday 23 Nov 2014 (Local Time) from CYPD Reporting Station
Clear Clear  
Wind Chill: 31°   Ceiling: Unl
Heat Index: 37°   Visibility: 9mi
Dew Point: 28°   Wind: 8mph
Humidity: 70%   Direction: 290°WNW
Pressure: 30.13"   Gusts: NA
Location:  45.34°N, 61°W
Report Text: CYPD 240000Z AUTO 29007KT 9SM CLR 03/M02 A3013 RMK SLP207
Loading
Personal Weather Stations






























Interactive Weather Map New forecast layout! Learn more

10-Day Weather Forecast

Advertisements
Track Severe Weather on mobile